CheckWX is a tool to help pilots better visualize weather data.  It is not intended as a substitute for an official pre-flight weather briefing.

10:08:31 UTC

MMCB TAF
General Mariano Matamoros Airport
Mexico
TAF MMCB 260447Z 2606/2706 25005KT P6SM SCT080 SCT250 TEMPO 2612/2615 BKN010 FM261800 13010KT P6SM SCT030 SCT250 TEMPO 2622/2702 5SM TSRA BKN020CB

Jun-26@
06:00 UTC

Jun-26 @ 06:00 UTC

Jun-26@
18:00 UTC

Jun-26 @ 18:00 UTC

TAF MMCB 260447Z 2606/2706 25005KT P6SM SCT080 SCT250
Wind
  • 250° at 5 KTS
Cloud Levels
  • Scattered at 8,000' AGL
  • Scattered at 25,000' AGL

Jun-26@
12:00 UTC

Jun-26 @ 12:00 UTC

Jun-26@
15:00 UTC

Jun-26 @ 15:00 UTC

TEMPO 2612/2615 BKN010

Temporary

Temporary Changes expected for less than half the time period

Cloud Levels
  • Broken at 1,000' AGL

Jun-26@
18:00 UTC

Jun-26 @ 18:00 UTC

Jun-27@
06:00 UTC

Jun-27 @ 06:00 UTC

FM261800 13010KT P6SM SCT030 SCT250

From

From Standard forecast or significant change

Wind
  • 130° at 10 KTS
Cloud Levels
  • Scattered at 3,000' AGL
  • Scattered at 25,000' AGL

Jun-26@
22:00 UTC

Jun-26 @ 22:00 UTC

Jun-27@
02:00 UTC

Jun-27 @ 02:00 UTC

TEMPO 2622/2702 5SM TSRA BKN020CB

Temporary

Temporary Changes expected for less than half the time period

Conditions
Thunderstorm, Rain
Cloud Levels
  • Broken at 2,000' AGL